createdAt,value
2023-02-05T00:01:36.552Z,95051.75
2023-02-05T00:04:03.992Z,95058.00
2023-02-05T00:06:31.453Z,95069.91
2023-02-05T00:08:58.721Z,95057.34
2023-02-05T00:11:26.687Z,95035.31
2023-02-05T00:13:54.867Z,95067.16
2023-02-05T00:16:25.361Z,95066.97
2023-02-05T00:18:53.781Z,95027.47
2023-02-05T00:21:22.593Z,95074.69
2023-02-05T00:23:50.268Z,95050.00
2023-02-05T00:26:17.692Z,95030.75
2023-02-05T00:28:45.732Z,95067.31
2023-02-05T00:31:23.620Z,95059.94
2023-02-05T00:33:51.822Z,95074.66
2023-02-05T00:36:20.534Z,95073.34
2023-02-05T00:38:48.258Z,95068.94
2023-02-05T00:41:16.114Z,95034.34
2023-02-05T00:43:44.118Z,95059.34
2023-02-05T00:46:12.751Z,95089.88
2023-02-05T00:48:41.424Z,95054.75
2023-02-05T00:51:09.933Z,95084.66
2023-02-05T00:53:37.307Z,95104.25
2023-02-05T00:56:04.677Z,95088.91
2023-02-05T00:58:31.810Z,95102.47
2023-02-05T01:00:59.219Z,95076.97
2023-02-05T01:03:27.711Z,95026.50
2023-02-05T01:05:54.902Z,95090.03
2023-02-05T01:08:22.026Z,95027.00
2023-02-05T01:10:50.953Z,95028.78
2023-02-05T01:13:18.509Z,95103.59
2023-02-05T01:15:46.245Z,95068.13
2023-02-05T01:18:13.434Z,95109.97
2023-02-05T01:20:42.010Z,95063.91
2023-02-05T01:23:09.346Z,95110.13
2023-02-05T01:25:37.101Z,95109.66
2023-02-05T01:28:04.583Z,95121.53
2023-02-05T01:30:31.805Z,95109.66
2023-02-05T01:32:59.052Z,95112.91
2023-02-05T01:35:26.418Z,95037.28
2023-02-05T01:37:53.641Z,95068.44
2023-02-05T01:40:21.457Z,95059.31
2023-02-05T01:42:48.739Z,95099.34
2023-02-05T01:45:21.940Z,95115.53
2023-02-05T01:47:52.356Z,95101.97
2023-02-05T01:50:25.229Z,95066.66
2023-02-05T01:52:55.513Z,95111.13
2023-02-05T01:55:22.616Z,95117.13
2023-02-05T01:57:51.243Z,95110.44
2023-02-05T02:00:18.385Z,95094.91
2023-02-05T02:02:45.936Z,95135.94
2023-02-05T02:05:16.182Z,95117.59
2023-02-05T02:07:43.358Z,95088.06
2023-02-05T02:10:15.389Z,94879.59
2023-02-05T02:12:45.239Z,95119.19
2023-02-05T02:15:20.896Z,95131.66
2023-02-05T02:17:51.804Z,94950.66
2023-02-05T02:20:26.272Z,95135.09
2023-02-05T02:22:56.313Z,95134.44
2023-02-05T02:25:32.799Z,95140.66
2023-02-05T02:28:14.377Z,95057.28
2023-02-05T02:30:53.682Z,95142.34
2023-02-05T02:33:27.483Z,95101.19
2023-02-05T02:36:26.244Z,95136.50
2023-02-05T02:39:02.192Z,95088.94
2023-02-05T02:41:55.650Z,95147.47
2023-02-05T02:44:47.197Z,95144.84
2023-02-05T02:47:18.834Z,95131.72
2023-02-05T02:49:50.864Z,95139.88
2023-02-05T02:52:22.875Z,95121.25
2023-02-05T02:54:54.207Z,95141.47
2023-02-05T02:57:26.335Z,95088.38
2023-02-05T02:59:59.588Z,95147.88
2023-02-05T03:02:30.741Z,95127.75
2023-02-05T03:05:04.325Z,95104.69
2023-02-05T03:07:42.125Z,95155.59
2023-02-05T03:10:28.688Z,95102.38
2023-02-05T03:12:58.135Z,95147.09
2023-02-05T03:15:26.433Z,95164.28
2023-02-05T03:17:55.706Z,95074.13
2023-02-05T03:20:35.044Z,95177.47
2023-02-05T03:23:02.338Z,95180.28
2023-02-05T03:25:31.051Z,95144.75
2023-02-05T03:28:00.319Z,95186.25
2023-02-05T03:31:04.017Z,95092.47
2023-02-05T03:33:51.455Z,95120.53
2023-02-05T03:36:26.938Z,95189.91
2023-02-05T03:39:15.951Z,95198.25
2023-02-05T03:42:02.342Z,95198.47
2023-02-05T03:44:36.432Z,95189.09
2023-02-05T03:47:04.239Z,95187.91
2023-02-05T03:49:53.160Z,95155.69
2023-02-05T03:52:27.318Z,95192.19
2023-02-05T03:55:00.470Z,95193.81
2023-02-05T03:57:49.730Z,95156.88
2023-02-05T04:00:18.115Z,95174.47
2023-02-05T04:02:47.337Z,95187.22
2023-02-05T04:05:23.091Z,95150.56
2023-02-05T04:07:52.913Z,95212.78
2023-02-05T04:10:23.451Z,95178.41
2023-02-05T04:12:51.498Z,95183.22
2023-02-05T04:15:19.257Z,95150.03
2023-02-05T04:17:50.537Z,95196.72
2023-02-05T04:20:18.741Z,95160.59
2023-02-05T04:22:45.904Z,95226.53
2023-02-05T04:25:13.365Z,95222.75
2023-02-05T04:27:40.690Z,95129.91
2023-02-05T04:30:08.489Z,95218.81
2023-02-05T04:32:39.156Z,95213.38
2023-02-05T04:35:06.610Z,95227.06
2023-02-05T04:37:33.618Z,95226.16
2023-02-05T04:40:00.685Z,95226.31
2023-02-05T04:42:27.722Z,95202.03
2023-02-05T04:44:54.850Z,95166.31
2023-02-05T04:47:21.881Z,95131.09
2023-02-05T04:49:49.128Z,95144.31
2023-02-05T04:52:16.161Z,95220.56
2023-02-05T04:54:43.303Z,95212.13
2023-02-05T04:57:10.278Z,95188.16
2023-02-05T04:59:37.386Z,95209.31
2023-02-05T05:02:04.575Z,95249.44
2023-02-05T05:04:31.515Z,95235.81
2023-02-05T05:06:58.839Z,95252.03
2023-02-05T05:09:26.888Z,95244.50
2023-02-05T05:11:56.540Z,95264.22
2023-02-05T05:14:23.517Z,95263.16
2023-02-05T05:16:50.929Z,95259.28
2023-02-05T05:19:18.033Z,95265.75
2023-02-05T05:21:45.074Z,95200.25
2023-02-05T05:24:15.275Z,95222.75
2023-02-05T05:26:45.199Z,95233.50
2023-02-05T05:29:13.500Z,95262.66
2023-02-05T05:31:41.890Z,95247.97
2023-02-05T05:34:09.104Z,95258.03
2023-02-05T05:36:36.247Z,95220.75
2023-02-05T05:39:22.232Z,95275.84
2023-02-05T05:42:07.688Z,95267.56
2023-02-05T05:44:34.645Z,95290.03
2023-02-05T05:47:01.577Z,95245.00
2023-02-05T05:49:28.729Z,95304.00
2023-02-05T05:51:55.699Z,95303.47
2023-02-05T05:54:23.013Z,95232.94
2023-02-05T05:56:50.336Z,95308.97
2023-02-05T05:59:17.824Z,95310.22
2023-02-05T06:01:44.749Z,95271.59
2023-02-05T06:04:12.187Z,95317.31
2023-02-05T06:06:39.220Z,95315.31
2023-02-05T06:09:06.275Z,95284.53
2023-02-05T06:11:33.805Z,95271.44
2023-02-05T06:14:00.768Z,95310.38
2023-02-05T06:16:27.917Z,95288.34
2023-02-05T06:18:55.722Z,95211.47
2023-02-05T06:21:23.023Z,95274.03
2023-02-05T06:23:50.195Z,95327.81
2023-02-05T06:26:18.491Z,95338.19
2023-02-05T06:28:45.593Z,95332.50
2023-02-05T06:31:12.819Z,95351.72
2023-02-05T06:33:39.794Z,95338.34
2023-02-05T06:36:07.697Z,95329.44
2023-02-05T06:38:34.857Z,95351.22
2023-02-05T06:41:01.813Z,95356.16
2023-02-05T06:43:28.940Z,95370.00
2023-02-05T06:45:55.903Z,95329.91
2023-02-05T06:48:23.010Z,95372.53
2023-02-05T06:50:49.993Z,95365.53
2023-02-05T06:53:17.384Z,95371.16
2023-02-05T06:55:45.967Z,95306.41
2023-02-05T06:58:13.060Z,95340.03
2023-02-05T07:00:40.372Z,95351.13
2023-02-05T07:03:07.390Z,95397.06
2023-02-05T07:05:35.162Z,95347.69
2023-02-05T07:08:04.460Z,95384.88
2023-02-05T07:10:31.396Z,95380.41
2023-02-05T07:12:58.419Z,95397.63
2023-02-05T07:15:25.669Z,95386.44
2023-02-05T07:17:52.809Z,95377.56
2023-02-05T07:20:20.003Z,95394.06
2023-02-05T07:22:47.325Z,95395.78
2023-02-05T07:25:14.389Z,95364.03
2023-02-05T07:27:41.919Z,95296.88
2023-02-05T07:30:09.526Z,95371.03
2023-02-05T07:32:36.644Z,95407.94
2023-02-05T07:35:03.980Z,95411.16
2023-02-05T07:37:31.596Z,95407.28
2023-02-05T07:39:58.472Z,95329.63
2023-02-05T07:42:25.426Z,95411.81
2023-02-05T07:44:57.297Z,95324.41
2023-02-05T07:47:24.263Z,95424.13
2023-02-05T07:49:51.750Z,95432.31
2023-02-05T07:52:18.893Z,95413.16
2023-02-05T07:54:46.025Z,95441.56
2023-02-05T07:57:12.921Z,95382.50
2023-02-05T07:59:39.868Z,95444.94
2023-02-05T08:02:07.660Z,95431.81
2023-02-05T08:04:34.654Z,95453.28
2023-02-05T08:07:01.824Z,95434.25
2023-02-05T08:09:29.078Z,95450.97
2023-02-05T08:11:56.199Z,95446.50
2023-02-05T08:14:23.225Z,95407.44
2023-02-05T08:16:50.537Z,95423.59
2023-02-05T08:19:18.521Z,95453.91
2023-02-05T08:21:45.532Z,95427.84
2023-02-05T08:24:12.704Z,95463.19
2023-02-05T08:26:40.297Z,95422.53
2023-02-05T08:29:08.455Z,95465.28
2023-02-05T08:31:36.060Z,95467.16
2023-02-05T08:34:03.877Z,95462.72
2023-02-05T08:36:31.242Z,95434.78
2023-02-05T08:38:58.299Z,95467.50
2023-02-05T08:41:25.404Z,95463.06
2023-02-05T08:43:52.339Z,95461.69
2023-02-05T08:46:22.023Z,95471.81
2023-02-05T08:48:49.447Z,95471.38
2023-02-05T08:51:17.249Z,95470.66
2023-02-05T08:53:44.236Z,95424.84
2023-02-05T08:56:14.079Z,95478.84
2023-02-05T08:58:42.068Z,95482.25
2023-02-05T09:01:15.392Z,95455.66
2023-02-05T09:03:42.787Z,95470.56
2023-02-05T09:06:13.318Z,95482.13
2023-02-05T09:08:40.779Z,95506.34
2023-02-05T09:11:08.882Z,95495.94
2023-02-05T09:13:36.748Z,95504.88
2023-02-05T09:16:03.805Z,95503.88
2023-02-05T09:18:31.160Z,95510.97
2023-02-05T09:20:58.197Z,95488.03
2023-02-05T09:23:25.312Z,95502.47
2023-02-05T09:25:52.557Z,95506.66
2023-02-05T09:28:19.591Z,95471.31
2023-02-05T09:30:46.995Z,95499.56
2023-02-05T09:33:14.372Z,95499.06
2023-02-05T09:35:42.315Z,95501.97
2023-02-05T09:38:12.957Z,95493.31
2023-02-05T09:40:50.461Z,95509.13
2023-02-05T09:43:38.493Z,95523.47
2023-02-05T09:46:17.358Z,95500.78
2023-02-05T09:48:54.941Z,95498.69
2023-02-05T09:51:33.691Z,95508.91
2023-02-05T09:54:12.813Z,95525.09
2023-02-05T09:56:40.133Z,95526.38
2023-02-05T09:59:07.574Z,95495.66
2023-02-05T10:01:43.925Z,95526.59
2023-02-05T10:04:11.713Z,95527.03
2023-02-05T10:06:54.150Z,95521.44
2023-02-05T10:09:21.062Z,95521.66
2023-02-05T10:12:14.055Z,95510.47
2023-02-05T10:14:52.727Z,95539.81
2023-02-05T10:17:56.332Z,95531.22
2023-02-05T10:20:39.062Z,95545.09
2023-02-05T10:23:34.159Z,95530.47
2023-02-05T10:26:13.351Z,95516.00
2023-02-05T10:29:04.822Z,95525.44
2023-02-05T10:31:41.039Z,95533.22
2023-02-05T10:34:18.468Z,95526.06
2023-02-05T10:36:52.171Z,95514.94
2023-02-05T10:39:23.427Z,95545.75
2023-02-05T10:42:16.543Z,95522.19
2023-02-05T10:44:46.601Z,95512.88
2023-02-05T10:47:44.952Z,95524.13
2023-02-05T10:50:23.783Z,95536.22
2023-02-05T10:52:51.391Z,95525.63
2023-02-05T10:55:18.403Z,95528.44
2023-02-05T10:57:45.430Z,95531.16
2023-02-05T11:00:21.934Z,95518.97
2023-02-05T11:02:54.824Z,95415.69
2023-02-05T11:05:34.727Z,95517.47
2023-02-05T11:08:01.956Z,95528.44
2023-02-05T11:10:31.891Z,95535.75
2023-02-05T11:13:20.376Z,95546.88
2023-02-05T11:16:04.677Z,95538.91
2023-02-05T11:18:57.548Z,95489.50
2023-02-05T11:21:46.492Z,95544.66
2023-02-05T11:24:25.816Z,95542.09
2023-02-05T11:27:16.014Z,95544.13
2023-02-05T11:29:43.637Z,95543.59
2023-02-05T11:32:35.302Z,95513.88
2023-02-05T11:35:18.996Z,95551.13
2023-02-05T11:37:48.957Z,95532.53
2023-02-05T11:40:26.252Z,95540.19
2023-02-05T11:43:08.937Z,95536.28
2023-02-05T11:45:39.923Z,95536.00
2023-02-05T11:48:41.382Z,95527.44
2023-02-05T11:51:11.711Z,95525.97
2023-02-05T11:53:55.584Z,95523.09
2023-02-05T11:56:25.623Z,95531.50
2023-02-05T11:59:16.823Z,95521.56
2023-02-05T12:01:46.029Z,95493.41
2023-02-05T12:04:19.504Z,95529.50
2023-02-05T12:06:52.346Z,95504.91
2023-02-05T12:09:25.222Z,95488.16
2023-02-05T12:12:28.022Z,95526.53
2023-02-05T12:15:13.924Z,95526.13
2023-02-05T12:18:14.732Z,95515.81
2023-02-05T12:20:46.163Z,95510.78
2023-02-05T12:23:25.820Z,95521.31
2023-02-05T12:26:08.646Z,95525.72
2023-02-05T12:28:42.016Z,95520.00
2023-02-05T12:31:25.042Z,95515.75
2023-02-05T12:34:24.792Z,95528.34
2023-02-05T12:37:05.331Z,95511.16
2023-02-05T12:39:47.731Z,95518.44
2023-02-05T12:42:33.174Z,95523.69
2023-02-05T12:45:18.884Z,95528.38
2023-02-05T12:47:57.678Z,95507.19
2023-02-05T12:50:47.701Z,95522.44
2023-02-05T12:53:52.292Z,95528.50
2023-02-05T12:56:28.157Z,95534.38
2023-02-05T12:59:09.611Z,95524.41
2023-02-05T13:01:53.953Z,95507.63
2023-02-05T13:04:56.216Z,95526.38
2023-02-05T13:07:35.449Z,95498.84
2023-02-05T13:10:05.628Z,95522.63
2023-02-05T13:12:43.413Z,95529.81
2023-02-05T13:15:16.610Z,95524.28
2023-02-05T13:18:01.960Z,95506.41
2023-02-05T13:20:55.259Z,95526.22
2023-02-05T13:23:41.646Z,95517.69
2023-02-05T13:26:24.691Z,95527.03
2023-02-05T13:29:10.503Z,95533.78
2023-02-05T13:31:48.412Z,95523.97
2023-02-05T13:34:17.035Z,95505.44
2023-02-05T13:36:52.999Z,95534.44
2023-02-05T13:39:38.754Z,95536.47
2023-02-05T13:42:47.342Z,95535.47
2023-02-05T13:45:52.179Z,95545.28
2023-02-05T13:48:27.518Z,95556.06
2023-02-05T13:51:06.992Z,95554.28
2023-02-05T13:53:53.157Z,95542.69
2023-02-05T13:56:41.688Z,95550.81
2023-02-05T13:59:17.802Z,95539.19
2023-02-05T14:01:52.432Z,95552.81
2023-02-05T14:04:20.262Z,95554.00
2023-02-05T14:07:00.871Z,95542.53
2023-02-05T14:09:56.478Z,95553.31
2023-02-05T14:12:27.056Z,95546.00
2023-02-05T14:15:19.741Z,95566.97
2023-02-05T14:17:46.808Z,95562.13
2023-02-05T14:20:41.703Z,95514.06
2023-02-05T14:23:14.585Z,95554.66
2023-02-05T14:25:42.824Z,95558.31
2023-02-05T14:28:16.185Z,95552.06
2023-02-05T14:30:52.243Z,95561.69
2023-02-05T14:33:43.457Z,95563.25
2023-02-05T14:36:24.394Z,95561.44
2023-02-05T14:38:51.248Z,95571.22
2023-02-05T14:41:21.391Z,95534.16
2023-02-05T14:44:05.870Z,95569.09
2023-02-05T14:46:44.530Z,95541.38
2023-02-05T14:49:37.958Z,95573.25
2023-02-05T14:52:46.290Z,95568.03
2023-02-05T14:55:13.257Z,95568.09
2023-02-05T14:57:40.072Z,95571.38
2023-02-05T15:00:27.955Z,95574.00
2023-02-05T15:03:15.288Z,95575.16
2023-02-05T15:05:45.719Z,95577.66
2023-02-05T15:08:34.038Z,95585.06
2023-02-05T15:11:10.064Z,95580.28
2023-02-05T15:13:38.342Z,95581.28
2023-02-05T15:16:11.691Z,95591.66
2023-02-05T15:18:40.163Z,95577.72
2023-02-05T15:21:16.355Z,95574.00
2023-02-05T15:23:52.157Z,95589.94
2023-02-05T15:26:40.096Z,95605.38
2023-02-05T15:29:25.762Z,95610.13
2023-02-05T15:31:56.461Z,95605.88
2023-02-05T15:34:37.473Z,95615.06
2023-02-05T15:37:21.053Z,95607.66
2023-02-05T15:39:53.765Z,95606.69
2023-02-05T15:42:26.922Z,95608.03
2023-02-05T15:44:53.884Z,95591.53
2023-02-05T15:47:23.657Z,95606.50
2023-02-05T15:49:55.076Z,95583.50
2023-02-05T15:52:29.008Z,95435.66
2023-02-05T15:55:08.954Z,95572.28
2023-02-05T15:57:36.203Z,95589.34
2023-02-05T16:00:08.585Z,95603.81
2023-02-05T16:02:36.816Z,95603.63
2023-02-05T16:05:18.917Z,95612.75
2023-02-05T16:07:51.853Z,95597.22
2023-02-05T16:10:27.781Z,95600.38
2023-02-05T16:13:15.717Z,95626.69
2023-02-05T16:16:24.258Z,95628.66
2023-02-05T16:18:57.112Z,95626.88
2023-02-05T16:21:25.820Z,95623.03
2023-02-05T16:24:07.443Z,95636.31
2023-02-05T16:26:44.047Z,95624.16
2023-02-05T16:29:38.978Z,95620.38
2023-02-05T16:32:36.393Z,95630.44
2023-02-05T16:35:08.014Z,95610.19
2023-02-05T16:37:36.218Z,95623.22
2023-02-05T16:40:06.942Z,95611.91
2023-02-05T16:42:43.488Z,95606.97
2023-02-05T16:45:10.660Z,95622.25
2023-02-05T16:47:39.009Z,95625.31
2023-02-05T16:50:38.614Z,95631.03
2023-02-05T16:53:19.226Z,95631.34
2023-02-05T16:55:47.464Z,95596.53
2023-02-05T16:58:22.727Z,95616.25
2023-02-05T17:01:02.019Z,95625.19
2023-02-05T17:03:35.503Z,95605.13
2023-02-05T17:06:11.190Z,95634.44
2023-02-05T17:08:38.380Z,95625.81
2023-02-05T17:11:26.905Z,95639.69
2023-02-05T17:14:11.634Z,95638.50
2023-02-05T17:16:42.723Z,95643.13
2023-02-05T17:19:30.557Z,95637.34
2023-02-05T17:22:15.989Z,95635.56
2023-02-05T17:24:49.322Z,95591.56
2023-02-05T17:27:23.092Z,95622.81
2023-02-05T17:29:50.675Z,95595.81
2023-02-05T17:32:20.149Z,95437.41
2023-02-05T17:34:47.622Z,95598.69
2023-02-05T17:37:15.252Z,95617.53
2023-02-05T17:39:42.902Z,95636.91
2023-02-05T17:42:19.225Z,95635.94
2023-02-05T17:44:46.715Z,95622.81
2023-02-05T17:47:14.118Z,95617.91
2023-02-05T17:49:41.978Z,95625.69
2023-02-05T17:52:10.565Z,95629.03
2023-02-05T17:54:37.804Z,95635.72
2023-02-05T17:57:22.088Z,95630.63
2023-02-05T17:59:49.834Z,95627.09
2023-02-05T18:02:17.254Z,95614.03
2023-02-05T18:04:46.011Z,95638.31
2023-02-05T18:07:35.583Z,95635.25
2023-02-05T18:10:04.191Z,95645.72
2023-02-05T18:12:31.555Z,95634.38
2023-02-05T18:14:58.861Z,95648.31
2023-02-05T18:17:25.956Z,95636.13
2023-02-05T18:19:53.052Z,95622.03
2023-02-05T18:22:20.034Z,95633.41
2023-02-05T18:24:46.986Z,95627.75
2023-02-05T18:27:14.132Z,95609.72
2023-02-05T18:29:43.422Z,95629.19
2023-02-05T18:32:11.442Z,95636.94
2023-02-05T18:34:40.072Z,95631.44
2023-02-05T18:37:07.215Z,95635.94
2023-02-05T18:39:34.113Z,95619.66
2023-02-05T18:42:01.037Z,95634.25
2023-02-05T18:44:28.345Z,95633.34
2023-02-05T18:46:55.377Z,95620.19
2023-02-05T18:49:22.769Z,95625.69
2023-02-05T18:51:49.896Z,95641.56
2023-02-05T18:54:16.830Z,95620.50
2023-02-05T18:56:44.031Z,95628.31
2023-02-05T18:59:15.553Z,95630.34
2023-02-05T19:01:43.137Z,95622.00
2023-02-05T19:04:13.165Z,95636.38
2023-02-05T19:06:42.470Z,95634.75
2023-02-05T19:09:10.002Z,95642.03
2023-02-05T19:11:41.006Z,95623.63
2023-02-05T19:14:12.008Z,95621.63
2023-02-05T19:16:40.263Z,95618.59
2023-02-05T19:19:08.104Z,95610.41
2023-02-05T19:21:36.241Z,95637.94
2023-02-05T19:24:09.820Z,95623.41
2023-02-05T19:26:38.882Z,95639.28
2023-02-05T19:29:09.158Z,95631.44
2023-02-05T19:31:37.645Z,95629.22
2023-02-05T19:34:07.030Z,95620.09
2023-02-05T19:36:34.247Z,95626.78
2023-02-05T19:39:02.359Z,95645.19
2023-02-05T19:41:32.100Z,95645.59
2023-02-05T19:44:02.367Z,95658.78
2023-02-05T19:46:33.475Z,95619.69
2023-02-05T19:49:08.109Z,95655.22
2023-02-05T19:51:35.987Z,95644.94
2023-02-05T19:54:04.109Z,95638.69
2023-02-05T19:56:32.487Z,95638.13
2023-02-05T19:58:59.937Z,95639.72
2023-02-05T20:01:29.806Z,95644.13
2023-02-05T20:04:07.843Z,95610.41
2023-02-05T20:06:35.224Z,95648.63
2023-02-05T20:09:03.933Z,95660.00
2023-02-05T20:11:30.950Z,95654.69
2023-02-05T20:14:01.453Z,95645.22
2023-02-05T20:16:28.397Z,95633.44
2023-02-05T20:18:58.278Z,95635.88
2023-02-05T20:21:26.800Z,95661.78
2023-02-05T20:23:54.796Z,95662.63
2023-02-05T20:26:23.177Z,95656.72
2023-02-05T20:29:11.813Z,95597.25
2023-02-05T20:31:42.880Z,95641.50
2023-02-05T20:34:11.497Z,95672.22
2023-02-05T20:36:39.227Z,95661.94
2023-02-05T20:39:07.661Z,95569.03
2023-02-05T20:41:35.486Z,95671.66
2023-02-05T20:44:03.689Z,95675.91
2023-02-05T20:46:31.420Z,95665.38
2023-02-05T20:49:00.376Z,95657.03
2023-02-05T20:51:27.623Z,95681.97
2023-02-05T20:53:59.423Z,95671.63
2023-02-05T20:56:30.150Z,95667.63
2023-02-05T20:59:02.278Z,95672.56
2023-02-05T21:01:31.637Z,95668.84
2023-02-05T21:04:00.277Z,95688.88
2023-02-05T21:06:30.115Z,95680.91
2023-02-05T21:08:57.644Z,95671.03
2023-02-05T21:11:26.128Z,95647.19
2023-02-05T21:13:53.250Z,95665.66
2023-02-05T21:16:23.067Z,95681.03
2023-02-05T21:18:51.387Z,95670.88
2023-02-05T21:21:28.169Z,95667.72
2023-02-05T21:24:06.631Z,95699.13
2023-02-05T21:26:40.086Z,95682.16
2023-02-05T21:29:13.324Z,95679.53
2023-02-05T21:31:49.251Z,95693.25
2023-02-05T21:34:22.099Z,95666.19
2023-02-05T21:36:50.282Z,95694.31
2023-02-05T21:39:20.204Z,95692.28
2023-02-05T21:41:50.185Z,95699.28
2023-02-05T21:44:17.269Z,95601.13
2023-02-05T21:46:44.439Z,95696.53
2023-02-05T21:49:12.086Z,95707.66
2023-02-05T21:51:42.400Z,95693.69
2023-02-05T21:54:10.887Z,95691.19
2023-02-05T21:56:43.419Z,95709.56
2023-02-05T21:59:12.581Z,95686.66
2023-02-05T22:01:41.762Z,95678.56
2023-02-05T22:04:13.011Z,95716.84
2023-02-05T22:06:40.772Z,95710.22
2023-02-05T22:09:09.712Z,95719.19
2023-02-05T22:11:38.544Z,95715.34
2023-02-05T22:14:05.639Z,95729.50
2023-02-05T22:16:34.441Z,95723.88
2023-02-05T22:19:02.751Z,95726.59
2023-02-05T22:21:35.049Z,95711.69
2023-02-05T22:24:04.330Z,95699.88
2023-02-05T22:26:33.866Z,95720.31
2023-02-05T22:29:02.209Z,95731.97
2023-02-05T22:31:29.994Z,95677.81
2023-02-05T22:33:58.008Z,95711.41
2023-02-05T22:36:28.239Z,95703.31
2023-02-05T22:38:58.641Z,95714.97
2023-02-05T22:41:26.942Z,95729.78
2023-02-05T22:43:54.939Z,95722.25
2023-02-05T22:46:24.624Z,95731.97
2023-02-05T22:48:53.396Z,95731.97
2023-02-05T22:51:26.407Z,95719.34
2023-02-05T22:53:54.127Z,95727.19
2023-02-05T22:56:21.544Z,95711.81
2023-02-05T22:58:49.715Z,95691.66
2023-02-05T23:01:20.269Z,95721.41
2023-02-05T23:03:49.392Z,95693.84
2023-02-05T23:06:18.180Z,95713.59
2023-02-05T23:08:50.728Z,95715.91
2023-02-05T23:11:18.424Z,95708.22
2023-02-05T23:13:45.679Z,95678.91
2023-02-05T23:16:16.426Z,95691.22
2023-02-05T23:18:44.188Z,95699.59
2023-02-05T23:21:14.413Z,95707.84
2023-02-05T23:23:42.407Z,95629.38
2023-02-05T23:26:12.852Z,95648.03
2023-02-05T23:28:40.203Z,95705.66
2023-02-05T23:31:07.791Z,95697.97
2023-02-05T23:33:35.766Z,95686.31
2023-02-05T23:36:03.822Z,95704.13
2023-02-05T23:38:31.356Z,95688.91
2023-02-05T23:40:59.125Z,95714.28
2023-02-05T23:43:26.493Z,95712.38
2023-02-05T23:45:54.943Z,95710.84
2023-02-05T23:48:22.146Z,95680.66
2023-02-05T23:50:59.936Z,95486.03
2023-02-05T23:53:27.504Z,95715.53
2023-02-05T23:55:54.462Z,95694.53
2023-02-05T23:58:27.982Z,95720.59
